createdAt,value
2024-02-29T00:02:12.896Z,108.13
2024-02-29T00:05:15.006Z,100.95
2024-02-29T00:08:19.858Z,106.88
2024-02-29T00:11:22.078Z,106.25
2024-02-29T00:14:24.423Z,101.10
2024-02-29T00:17:26.890Z,102.72
2024-02-29T00:20:29.077Z,104.40
2024-02-29T00:23:31.125Z,99.97
2024-02-29T00:26:33.134Z,98.30
2024-02-29T00:29:35.747Z,106.78
2024-02-29T00:32:37.826Z,101.03
2024-02-29T00:35:44.507Z,104.40
2024-02-29T00:38:58.586Z,102.15
2024-02-29T00:42:04.797Z,102.30
2024-02-29T00:45:07.939Z,100.53
2024-02-29T00:48:10.412Z,101.07
2024-02-29T00:51:12.855Z,100.75
2024-02-29T00:54:15.252Z,102.10
2024-02-29T00:57:17.307Z,102.85
2024-02-29T01:00:20.115Z,102.20
2024-02-29T01:03:22.313Z,106.38
2024-02-29T01:06:24.566Z,103.80
2024-02-29T01:09:26.652Z,104.78
2024-02-29T01:12:28.707Z,105.03
2024-02-29T01:15:31.218Z,107.95
2024-02-29T01:18:33.579Z,113.97
2024-02-29T01:21:35.813Z,115.13
2024-02-29T01:24:38.108Z,116.13
2024-02-29T01:27:40.380Z,110.97
2024-02-29T01:30:42.914Z,110.75
2024-02-29T01:33:45.398Z,112.05
2024-02-29T01:36:47.582Z,107.28
2024-02-29T01:39:49.719Z,111.43
2024-02-29T01:42:51.855Z,109.70
2024-02-29T01:46:10.643Z,107.00
2024-02-29T01:49:14.313Z,109.13
2024-02-29T01:52:17.477Z,109.28
2024-02-29T01:58:22.376Z,107.55
2024-02-29T02:01:25.466Z,112.82
2024-02-29T02:04:27.623Z,109.40
2024-02-29T02:07:29.970Z,107.80
2024-02-29T02:10:32.221Z,109.78
2024-02-29T02:13:34.384Z,111.13
2024-02-29T02:16:37.126Z,107.30
2024-02-29T02:19:40.288Z,113.68
2024-02-29T02:25:44.749Z,105.78
2024-02-29T02:28:47.601Z,108.85
2024-02-29T02:31:49.686Z,109.95
2024-02-29T02:34:51.958Z,108.32
2024-02-29T02:37:53.998Z,112.47
2024-02-29T02:40:56.044Z,112.65
2024-02-29T02:43:58.127Z,107.88
2024-02-29T02:47:00.319Z,110.32
2024-02-29T02:50:02.661Z,107.25
2024-02-29T02:53:04.916Z,105.60
2024-02-29T02:56:07.271Z,105.20
2024-02-29T02:59:09.392Z,106.53
2024-02-29T03:02:11.616Z,104.97
2024-02-29T03:05:13.770Z,107.40
2024-02-29T03:08:16.169Z,104.18
2024-02-29T03:11:18.601Z,103.72
2024-02-29T03:14:20.710Z,103.10
2024-02-29T03:17:23.189Z,104.30
2024-02-29T03:20:25.449Z,104.80
2024-02-29T03:23:27.459Z,110.15
2024-02-29T03:26:30.050Z,109.25
2024-02-29T03:29:33.066Z,105.28
2024-02-29T03:32:35.226Z,107.97
2024-02-29T03:35:37.613Z,109.65
2024-02-29T03:38:43.190Z,113.03
2024-02-29T03:41:45.452Z,109.07
2024-02-29T03:44:47.507Z,107.25
2024-02-29T03:47:49.902Z,105.85
2024-02-29T03:50:52.216Z,104.32
2024-02-29T03:53:54.458Z,107.47
2024-02-29T03:56:56.738Z,107.82
2024-02-29T03:59:58.839Z,107.85
2024-02-29T04:03:01.026Z,103.43
2024-02-29T04:06:03.172Z,108.57
2024-02-29T04:09:05.934Z,111.05
2024-02-29T04:12:08.340Z,106.30
2024-02-29T04:15:10.601Z,105.68
2024-02-29T04:18:12.812Z,105.55
2024-02-29T04:21:15.195Z,108.22
2024-02-29T04:24:17.926Z,107.40
2024-02-29T04:27:19.993Z,104.63
2024-02-29T04:30:22.222Z,107.70
2024-02-29T04:33:24.310Z,110.65
2024-02-29T04:36:26.383Z,104.70
2024-02-29T04:39:28.464Z,105.13
2024-02-29T04:42:31.166Z,106.78
2024-02-29T04:45:33.350Z,103.45
2024-02-29T04:48:35.480Z,110.82
2024-02-29T04:51:37.610Z,104.75
2024-02-29T04:54:41.956Z,104.40
2024-02-29T04:57:44.034Z,109.70
2024-02-29T05:00:46.098Z,106.03
2024-02-29T05:03:48.360Z,106.05
2024-02-29T05:06:51.089Z,109.47
2024-02-29T05:09:53.134Z,105.50
2024-02-29T05:12:55.568Z,103.35
2024-02-29T05:15:57.899Z,107.97
2024-02-29T05:19:00.163Z,104.70
2024-02-29T05:22:02.188Z,100.78
2024-02-29T05:25:04.518Z,110.95
2024-02-29T05:28:06.708Z,107.65
2024-02-29T05:31:09.594Z,102.53
2024-02-29T05:34:11.995Z,104.05
2024-02-29T05:37:14.377Z,103.82
2024-02-29T05:40:17.405Z,111.85
2024-02-29T05:43:19.929Z,100.20
2024-02-29T05:46:22.013Z,103.93
2024-02-29T05:49:24.371Z,112.93
2024-02-29T05:52:26.556Z,104.95
2024-02-29T05:55:28.745Z,104.65
2024-02-29T05:58:30.863Z,108.10
2024-02-29T06:01:33.657Z,107.30
2024-02-29T06:04:36.077Z,103.07
2024-02-29T06:07:38.155Z,109.80
2024-02-29T06:10:40.384Z,118.63
2024-02-29T06:13:42.938Z,108.57
2024-02-29T06:16:45.191Z,107.90
2024-02-29T06:19:47.325Z,108.65
2024-02-29T06:22:49.497Z,104.60
2024-02-29T06:25:51.751Z,104.07
2024-02-29T06:28:53.668Z,107.43
2024-02-29T06:31:55.615Z,103.93
2024-02-29T06:34:57.549Z,103.75
2024-02-29T06:37:59.584Z,102.90
2024-02-29T06:41:01.506Z,105.40
2024-02-29T06:44:04.228Z,102.85
2024-02-29T06:47:06.262Z,103.88
2024-02-29T06:50:08.800Z,105.47
2024-02-29T06:53:11.581Z,103.25
2024-02-29T06:56:13.600Z,102.30
2024-02-29T06:59:15.553Z,104.03
2024-02-29T07:02:17.742Z,103.85
2024-02-29T07:05:19.845Z,106.18
2024-02-29T07:08:22.367Z,104.90
2024-02-29T07:11:25.140Z,103.85
2024-02-29T07:14:27.669Z,106.32
2024-02-29T07:17:29.795Z,111.45
2024-02-29T07:20:32.268Z,108.70
2024-02-29T07:23:34.365Z,120.97
2024-02-29T07:26:42.713Z,107.15
2024-02-29T07:29:45.783Z,116.72
2024-02-29T07:32:48.142Z,111.85
2024-02-29T07:35:50.614Z,104.93
2024-02-29T07:38:53.189Z,103.55
2024-02-29T07:41:55.834Z,100.05
2024-02-29T07:44:58.073Z,100.15
2024-02-29T07:48:00.365Z,102.28
2024-02-29T07:51:02.709Z,100.38
2024-02-29T07:54:05.063Z,100.93
2024-02-29T07:57:07.499Z,99.97
2024-02-29T08:00:10.341Z,100.53
2024-02-29T08:03:15.406Z,100.63
2024-02-29T08:06:17.899Z,97.25
2024-02-29T08:09:19.936Z,99.35
2024-02-29T08:12:22.098Z,96.53
2024-02-29T08:15:24.056Z,99.78
2024-02-29T08:18:26.062Z,103.35
2024-02-29T08:21:28.147Z,99.00
2024-02-29T08:24:30.700Z,96.28
2024-02-29T08:27:32.826Z,109.57
2024-02-29T08:30:35.262Z,94.32
2024-02-29T08:33:39.770Z,100.03
2024-02-29T08:36:41.850Z,95.35
2024-02-29T08:39:44.085Z,95.40
2024-02-29T08:42:46.446Z,92.78
2024-02-29T08:45:48.599Z,92.88
2024-02-29T08:48:50.704Z,85.07
2024-02-29T08:51:52.711Z,76.90
2024-02-29T08:54:54.852Z,76.47
2024-02-29T08:57:56.915Z,71.35
2024-02-29T09:00:59.277Z,70.25
2024-02-29T09:04:01.357Z,69.20
2024-02-29T09:07:03.648Z,68.03
2024-02-29T09:10:06.729Z,68.85
2024-02-29T09:13:20.372Z,70.60
2024-02-29T09:16:31.599Z,70.40
2024-02-29T09:19:34.109Z,72.55
2024-02-29T09:22:36.092Z,74.05
2024-02-29T09:25:38.319Z,75.35
2024-02-29T09:28:40.479Z,74.22
2024-02-29T09:31:43.826Z,74.38
2024-02-29T09:34:49.613Z,71.43
2024-02-29T09:37:54.035Z,74.03
2024-02-29T09:41:03.344Z,72.95
2024-02-29T09:44:15.668Z,72.90
2024-02-29T09:47:18.661Z,71.07
2024-02-29T09:50:20.899Z,73.90
2024-02-29T09:53:23.811Z,70.15
2024-02-29T09:56:29.500Z,71.38
2024-02-29T09:59:32.885Z,68.82
2024-02-29T10:02:35.707Z,70.53
2024-02-29T10:05:37.838Z,71.05
2024-02-29T10:08:39.818Z,69.72
2024-02-29T10:11:42.762Z,70.60
2024-02-29T10:14:45.929Z,68.03
2024-02-29T10:17:50.274Z,66.53
2024-02-29T10:20:53.006Z,65.75
2024-02-29T10:23:57.728Z,67.40
2024-02-29T10:27:03.777Z,66.63
2024-02-29T10:30:13.307Z,67.07
2024-02-29T10:33:15.931Z,66.00
2024-02-29T10:36:20.336Z,65.25
2024-02-29T10:39:22.672Z,65.32
2024-02-29T10:42:25.933Z,64.43
2024-02-29T10:45:29.912Z,63.13
2024-02-29T10:49:07.629Z,64.18
2024-02-29T10:52:13.213Z,61.92
2024-02-29T10:55:24.145Z,62.10
2024-02-29T10:58:38.251Z,61.50
2024-02-29T11:01:40.540Z,62.92
2024-02-29T11:07:45.856Z,65.47
2024-02-29T11:10:48.149Z,59.92
2024-02-29T11:16:52.205Z,62.53
2024-02-29T11:20:01.786Z,57.30
2024-02-29T11:23:10.790Z,56.63
2024-02-29T11:26:13.720Z,55.92
2024-02-29T11:29:20.275Z,57.70
2024-02-29T11:32:28.855Z,57.88
2024-02-29T11:35:30.949Z,58.08
2024-02-29T11:38:40.016Z,60.40
2024-02-29T11:41:42.776Z,60.78
2024-02-29T11:44:47.796Z,60.78
2024-02-29T11:47:50.022Z,61.83
2024-02-29T12:03:17.972Z,58.33
2024-02-29T12:06:22.912Z,57.78
2024-02-29T12:09:25.089Z,61.05
2024-02-29T12:12:27.125Z,61.28
2024-02-29T12:15:29.688Z,60.33
2024-02-29T12:18:31.853Z,61.40
2024-02-29T12:21:37.708Z,61.35
2024-02-29T12:24:40.020Z,60.35
2024-02-29T12:27:43.922Z,60.75
2024-02-29T12:30:48.267Z,60.95
2024-02-29T12:33:50.409Z,62.20
2024-02-29T12:36:52.416Z,63.05
2024-02-29T12:39:57.933Z,63.63
2024-02-29T12:43:00.517Z,64.18
2024-02-29T12:46:03.758Z,64.53
2024-02-29T12:49:05.770Z,64.47
2024-02-29T12:52:08.172Z,60.88
2024-02-29T12:55:10.630Z,61.50
2024-02-29T12:58:13.035Z,62.65
2024-02-29T13:01:15.280Z,62.97
2024-02-29T13:04:17.370Z,63.70
2024-02-29T13:07:19.575Z,61.85
2024-02-29T13:10:21.845Z,61.35
2024-02-29T13:13:23.927Z,62.50
2024-02-29T13:16:28.338Z,62.10
2024-02-29T13:19:30.311Z,62.75
2024-02-29T13:22:32.266Z,62.50
2024-02-29T13:25:34.451Z,62.80
2024-02-29T13:28:36.613Z,61.28
2024-02-29T13:31:38.772Z,64.20
2024-02-29T13:34:40.755Z,63.30
2024-02-29T13:37:42.741Z,62.72
2024-02-29T13:40:44.883Z,61.35
2024-02-29T13:43:46.922Z,63.42
2024-02-29T13:46:48.987Z,63.88
2024-02-29T13:49:51.150Z,61.95
2024-02-29T13:52:53.605Z,62.85
2024-02-29T13:55:55.572Z,61.97
2024-02-29T13:58:57.886Z,61.50
2024-02-29T14:02:02.256Z,60.45
2024-02-29T14:05:04.445Z,60.42
2024-02-29T14:08:06.660Z,61.35
2024-02-29T14:14:10.788Z,65.07
2024-02-29T14:17:14.644Z,61.80
2024-02-29T14:20:16.651Z,62.72
2024-02-29T14:23:18.895Z,62.00
2024-02-29T14:26:21.120Z,61.97
2024-02-29T14:29:23.223Z,61.72
2024-02-29T14:32:25.243Z,61.65
2024-02-29T14:35:27.260Z,62.10
2024-02-29T14:38:29.327Z,61.88
2024-02-29T14:41:31.539Z,62.15
2024-02-29T14:44:33.610Z,61.90
2024-02-29T14:47:35.731Z,63.50
2024-02-29T14:50:37.825Z,63.38
2024-02-29T14:53:39.815Z,63.17
2024-02-29T14:56:41.975Z,63.28
2024-02-29T14:59:44.060Z,65.53
2024-02-29T15:02:46.091Z,65.35
2024-02-29T15:05:48.874Z,64.75
2024-02-29T15:08:51.734Z,65.13
2024-02-29T15:11:53.791Z,65.68
2024-02-29T15:14:55.749Z,64.70
2024-02-29T15:17:58.565Z,66.43
2024-02-29T15:21:01.503Z,66.13
2024-02-29T15:24:03.888Z,66.45
2024-02-29T15:27:06.523Z,65.35
2024-02-29T15:30:09.619Z,66.63
2024-02-29T15:33:12.035Z,67.05
2024-02-29T15:36:14.312Z,68.10
2024-02-29T15:39:16.748Z,66.88
2024-02-29T15:42:18.788Z,68.75
2024-02-29T15:45:20.846Z,70.55
2024-02-29T15:48:22.905Z,70.95
2024-02-29T15:51:24.984Z,68.80
2024-02-29T15:54:26.978Z,70.00
2024-02-29T15:57:29.409Z,70.38
2024-02-29T16:00:31.796Z,71.22
2024-02-29T16:03:33.914Z,71.57
2024-02-29T16:06:35.992Z,69.63
2024-02-29T16:09:37.932Z,69.18
2024-02-29T16:12:40.928Z,71.60
2024-02-29T16:15:43.148Z,70.95
2024-02-29T16:18:45.181Z,70.50
2024-02-29T16:21:47.319Z,70.55
2024-02-29T16:24:49.419Z,73.65
2024-02-29T16:27:51.665Z,73.30
2024-02-29T16:30:53.779Z,71.45
2024-02-29T16:33:55.879Z,75.68
2024-02-29T16:36:58.075Z,78.55
2024-02-29T16:40:00.174Z,77.13
2024-02-29T16:43:05.039Z,80.00
2024-02-29T16:46:07.174Z,76.68
2024-02-29T16:49:10.008Z,77.05
2024-02-29T16:52:12.210Z,73.70
2024-02-29T16:55:14.444Z,73.80
2024-02-29T16:58:16.787Z,72.20
2024-02-29T17:01:19.544Z,74.50
2024-02-29T17:04:21.730Z,79.07
2024-02-29T17:07:23.890Z,75.15
2024-02-29T17:10:26.046Z,75.45
2024-02-29T17:13:28.354Z,81.88
2024-02-29T17:16:30.534Z,78.00
2024-02-29T17:19:32.615Z,81.40
2024-02-29T17:22:34.900Z,80.20
2024-02-29T17:25:37.168Z,79.45
2024-02-29T17:28:39.383Z,81.63
2024-02-29T17:31:41.447Z,79.45
2024-02-29T17:34:43.495Z,79.70
2024-02-29T17:37:45.550Z,80.22
2024-02-29T17:40:47.573Z,81.68
2024-02-29T17:43:49.736Z,81.32
2024-02-29T17:46:51.903Z,82.70
2024-02-29T17:49:54.031Z,82.80
2024-02-29T17:52:56.022Z,83.03
2024-02-29T17:55:57.979Z,85.72
2024-02-29T17:59:00.054Z,85.53
2024-02-29T18:02:02.666Z,85.32
2024-02-29T18:08:07.573Z,92.70
2024-02-29T18:14:11.651Z,96.75
2024-02-29T18:17:13.697Z,93.40
2024-02-29T18:20:15.831Z,96.00
2024-02-29T18:23:17.828Z,90.25
2024-02-29T18:26:22.550Z,89.18
2024-02-29T18:29:24.788Z,89.28
2024-02-29T18:32:26.926Z,88.85
2024-02-29T18:35:28.972Z,88.45
2024-02-29T18:38:30.987Z,88.85
2024-02-29T18:41:38.462Z,88.45
2024-02-29T18:44:40.651Z,88.30
2024-02-29T18:47:42.674Z,87.03
2024-02-29T18:50:44.710Z,90.68
2024-02-29T18:53:46.868Z,86.60
2024-02-29T18:56:48.841Z,87.07
2024-02-29T18:59:50.855Z,87.25
2024-02-29T19:02:52.801Z,87.57
2024-02-29T19:05:54.856Z,89.35
2024-02-29T19:08:56.844Z,89.32
2024-02-29T19:11:59.103Z,89.40
2024-02-29T19:15:01.100Z,88.80
2024-02-29T19:18:03.440Z,89.03
2024-02-29T19:21:06.159Z,88.78
2024-02-29T19:24:08.232Z,92.20
2024-02-29T19:27:21.656Z,91.57
2024-02-29T19:30:23.881Z,92.15
2024-02-29T19:33:25.847Z,92.13
2024-02-29T19:36:28.121Z,93.45
2024-02-29T19:39:30.118Z,90.03
2024-02-29T19:42:32.127Z,92.32
2024-02-29T19:45:34.438Z,90.80
2024-02-29T19:48:36.392Z,89.57
2024-02-29T19:51:42.118Z,89.25
2024-02-29T19:54:44.120Z,91.30
2024-02-29T19:57:46.102Z,95.07
2024-02-29T20:00:48.376Z,90.10
2024-02-29T20:03:50.773Z,92.72
2024-02-29T20:06:52.858Z,90.88
2024-02-29T20:09:54.984Z,92.40
2024-02-29T20:12:57.664Z,92.25
2024-02-29T20:15:59.930Z,91.20
2024-02-29T20:19:02.034Z,93.43
2024-02-29T20:22:04.530Z,95.22
2024-02-29T20:25:07.384Z,92.53
2024-02-29T20:31:11.610Z,92.05
2024-02-29T20:34:14.596Z,93.90
2024-02-29T20:37:16.696Z,97.38
2024-02-29T20:40:18.979Z,98.40
2024-02-29T20:43:21.309Z,98.97
2024-02-29T20:46:23.601Z,93.28
2024-02-29T20:49:25.719Z,96.35
2024-02-29T20:52:27.928Z,97.60
2024-02-29T20:55:30.139Z,96.57
2024-02-29T20:58:32.302Z,94.30
2024-02-29T21:01:37.592Z,99.15
2024-02-29T21:04:39.890Z,93.93
2024-02-29T21:07:44.317Z,90.70
2024-02-29T21:10:46.740Z,92.28
2024-02-29T21:13:48.837Z,95.32
2024-02-29T21:16:50.889Z,95.95
2024-02-29T21:19:52.979Z,99.22
2024-02-29T21:22:54.942Z,98.05
2024-02-29T21:25:56.893Z,95.90
2024-02-29T21:29:01.313Z,94.95
2024-02-29T21:32:03.544Z,98.13
2024-02-29T21:35:05.885Z,95.80
2024-02-29T21:38:07.886Z,97.78
2024-02-29T21:41:10.290Z,101.28
2024-02-29T21:44:14.573Z,96.18
2024-02-29T21:47:16.544Z,96.88
2024-02-29T21:50:18.544Z,97.22
2024-02-29T21:53:20.567Z,100.63
2024-02-29T21:56:22.625Z,98.45
2024-02-29T21:59:24.727Z,99.05
2024-02-29T22:02:26.707Z,98.93
2024-02-29T22:05:28.712Z,98.45
2024-02-29T22:08:31.260Z,100.13
2024-02-29T22:11:33.322Z,97.75
2024-02-29T22:14:35.363Z,99.10
2024-02-29T22:17:37.464Z,97.28
2024-02-29T22:20:39.498Z,97.55
2024-02-29T22:23:41.491Z,96.95
2024-02-29T22:26:43.469Z,97.03
2024-02-29T22:29:45.708Z,97.53
2024-02-29T22:32:47.947Z,98.03
2024-02-29T22:35:50.249Z,97.82
2024-02-29T22:38:52.360Z,98.10
2024-02-29T22:42:00.706Z,99.53
2024-02-29T22:45:04.341Z,100.97
2024-02-29T22:48:06.732Z,101.10
2024-02-29T22:51:08.798Z,100.68
2024-02-29T22:54:10.884Z,101.80
2024-02-29T22:57:12.898Z,103.25
2024-02-29T23:00:16.251Z,98.32
2024-02-29T23:03:18.225Z,100.22
2024-02-29T23:06:20.261Z,100.95
2024-02-29T23:09:22.248Z,99.35
2024-02-29T23:12:24.225Z,96.65
2024-02-29T23:15:26.257Z,101.25
2024-02-29T23:18:28.292Z,101.13
2024-02-29T23:21:30.503Z,100.13
2024-02-29T23:24:32.476Z,106.07
2024-02-29T23:27:34.499Z,102.53
2024-02-29T23:30:36.518Z,101.72
2024-02-29T23:33:38.592Z,102.90
2024-02-29T23:36:40.625Z,105.68
2024-02-29T23:39:43.045Z,105.97
2024-02-29T23:42:45.140Z,105.75
2024-02-29T23:45:47.147Z,108.97
2024-02-29T23:48:49.152Z,103.63
2024-02-29T23:51:51.306Z,111.97
2024-02-29T23:54:53.255Z,101.75
2024-02-29T23:57:55.725Z,101.95
